Time;durP1;ratioP1;P1;durP2;ratioP2;P2;SDS_P1;SDS_P2;PMS_P1;PMS_P2;Temp;Humidity;BMP_temperature;BMP_pressure;BME280_temperature;BME280_humidity;BME280_pressure;Samples;Min_cycle;Max_cycle;Signal;HPM_P1;HPM_P2
2021/10/11 00:01:53;;;;;;;44.90;22.55;;;3.50;94.10;;;;;;5052833;28;20086;-71
2021/10/11 00:04:19;;;;;;;43.92;22.80;;;3.60;94.40;;;;;;5048924;28;20438;-71
2021/10/11 00:06:44;;;;;;;39.13;20.30;;;3.60;95.30;;;;;;5048385;28;20033;-70
2021/10/11 00:09:13;;;;;;;37.65;20.23;;;3.40;95.60;;;;;;5047036;28;20026;-70
2021/10/11 00:11:38;;;;;;;30.85;17.95;;;3.20;96.30;;;;;;5048470;28;20100;-69
2021/10/11 00:14:04;;;;;;;46.22;20.10;;;2.90;96.70;;;;;;5049168;28;20140;-69
2021/10/11 00:16:30;;;;;;;35.90;19.67;;;2.80;96.10;;;;;;5052791;28;20100;-69
2021/10/11 00:18:56;;;;;;;39.88;19.88;;;2.60;96.30;;;;;;5054057;28;20117;-69
2021/10/11 00:21:22;;;;;;;39.33;20.02;;;2.60;95.30;;;;;;5049652;28;20033;-71
2021/10/11 00:23:48;;;;;;;35.72;20.92;;;2.70;95.30;;;;;;5053297;28;20146;-71
2021/10/11 00:26:14;;;;;;;39.75;20.17;;;2.80;94.60;;;;;;5052812;28;20309;-71
2021/10/11 00:28:39;;;;;;;38.63;20.48;;;2.90;94.50;;;;;;5049581;28;20039;-72
2021/10/11 00:31:05;;;;;;;38.63;20.52;;;3.00;94.30;;;;;;5053317;28;20106;-70
2021/10/11 00:33:31;;;;;;;42.38;21.27;;;3.00;94.60;;;;;;5048222;28;20032;-71
2021/10/11 00:35:59;;;;;;;39.53;20.52;;;3.00;94.60;;;;;;5047464;28;20096;-71
2021/10/11 00:38:25;;;;;;;36.40;20.92;;;3.00;94.20;;;;;;5051596;28;20033;-70
2021/10/11 00:40:50;;;;;;;37.50;21.00;;;3.20;94.00;;;;;;5056545;28;20079;-71
2021/10/11 00:43:16;;;;;;;37.45;20.02;;;3.20;94.40;;;;;;5053745;28;20032;-71
2021/10/11 00:45:44;;;;;;;30.35;18.50;;;3.20;94.60;;;;;;5055963;28;20428;-70
2021/10/11 00:48:10;;;;;;;43.38;21.73;;;3.20;94.90;;;;;;5056804;28;20044;-71
2021/10/11 00:50:36;;;;;;;39.38;19.15;;;3.20;94.60;;;;;;5050559;28;20057;-71
2021/10/11 00:53:02;;;;;;;37.10;20.48;;;3.10;94.70;;;;;;5047992;28;20049;-70
2021/10/11 00:55:28;;;;;;;40.28;21.38;;;3.10;94.40;;;;;;5051957;28;20032;-70
2021/10/11 00:57:54;;;;;;;45.53;22.52;;;3.10;94.20;;;;;;5056699;28;20100;-71
2021/10/11 01:00:19;;;;;;;45.13;22.13;;;3.20;94.60;;;;;;5053076;28;20029;-71
2021/10/11 01:02:48;;;;;;;44.65;23.70;;;3.10;94.70;;;;;;5054017;28;20029;-71
2021/10/11 01:05:13;;;;;;;42.08;22.00;;;3.20;94.30;;;;;;5054137;28;20060;-71
2021/10/11 01:07:39;;;;;;;38.75;21.13;;;3.20;94.40;;;;;;5054657;28;20377;-70
2021/10/11 01:10:05;;;;;;;38.88;21.05;;;3.20;94.40;;;;;;5053407;28;20029;-71
2021/10/11 01:12:31;;;;;;;37.53;20.42;;;3.30;94.70;;;;;;5052348;28;20059;-71
2021/10/11 01:14:57;;;;;;;38.75;20.35;;;3.20;94.80;;;;;;5054957;28;20064;-70
2021/10/11 01:17:22;;;;;;;42.13;21.40;;;3.20;94.60;;;;;;5055280;28;20021;-71
2021/10/11 01:19:50;;;;;;;35.15;19.83;;;3.20;95.00;;;;;;5053956;28;20032;-71
2021/10/11 01:22:18;;;;;;;38.85;20.95;;;3.10;94.80;;;;;;5052599;28;20309;-71
2021/10/11 01:24:44;;;;;;;37.60;20.00;;;3.10;95.20;;;;;;5051318;28;20116;-70
2021/10/11 01:27:10;;;;;;;37.95;21.17;;;3.00;95.10;;;;;;5056707;28;20036;-71
2021/10/11 01:29:35;;;;;;;41.10;20.75;;;2.90;94.80;;;;;;5054898;28;20037;-70
2021/10/11 01:32:04;;;;;;;37.42;21.20;;;2.80;95.60;;;;;;5051350;28;20090;-71
2021/10/11 01:34:30;;;;;;;37.47;20.80;;;2.60;95.60;;;;;;5047875;28;20041;-71
2021/10/11 01:36:55;;;;;;;43.42;22.92;;;2.60;94.50;;;;;;5055264;28;20299;-71
2021/10/11 01:39:21;;;;;;;42.65;22.23;;;2.70;94.20;;;;;;5055346;28;20025;-71
2021/10/11 01:41:50;;;;;;;39.47;20.10;;;2.80;94.20;;;;;;5056446;28;20029;-70
2021/10/11 01:44:15;;;;;;;38.97;21.55;;;2.80;94.20;;;;;;5057368;28;20433;-71
2021/10/11 01:46:41;;;;;;;37.00;20.77;;;2.90;94.10;;;;;;5056812;28;20029;-71
2021/10/11 01:49:06;;;;;;;36.72;21.80;;;2.90;94.10;;;;;;5052525;28;20025;-71
2021/10/11 01:51:32;;;;;;;39.35;20.52;;;2.90;94.30;;;;;;5056832;28;20147;-71
2021/10/11 01:53:58;;;;;;;44.83;21.38;;;2.90;94.60;;;;;;5050545;28;20056;-71
2021/10/11 01:56:24;;;;;;;40.58;21.00;;;2.80;94.30;;;;;;5053430;28;20060;-70
2021/10/11 01:58:50;;;;;;;41.08;22.40;;;2.80;94.60;;;;;;5052987;28;20059;-71
2021/10/11 02:01:18;;;;;;;42.42;21.45;;;2.80;94.00;;;;;;5054422;28;20263;-71
2021/10/11 02:03:44;;;;;;;40.83;22.38;;;2.90;93.30;;;;;;5055660;28;20067;-71
2021/10/11 02:06:10;;;;;;;46.40;23.10;;;3.00;93.30;;;;;;5054133;28;20029;-71
2021/10/11 02:08:35;;;;;;;38.95;20.92;;;3.10;93.60;;;;;;5047611;28;20033;-70
2021/10/11 02:11:01;;;;;;;37.63;21.33;;;3.10;94.30;;;;;;5053444;28;20379;-71
2021/10/11 02:13:27;;;;;;;39.20;22.00;;;3.00;94.20;;;;;;5054936;28;20448;-71
2021/10/11 02:15:52;;;;;;;37.45;21.73;;;3.00;94.20;;;;;;5055113;28;20060;-71
2021/10/11 02:18:18;;;;;;;43.65;22.45;;;3.00;94.40;;;;;;5054458;28;20082;-70
2021/10/11 02:20:44;;;;;;;39.05;21.75;;;3.00;94.20;;;;;;5055849;28;20472;-70
2021/10/11 02:23:09;;;;;;;44.97;23.60;;;2.90;94.40;;;;;;5054604;28;20368;-71
2021/10/11 02:25:35;;;;;;;41.55;21.20;;;2.90;94.30;;;;;;5054566;28;20035;-71
2021/10/11 02:28:04;;;;;;;45.67;23.60;;;3.00;94.10;;;;;;5055004;28;20049;-71
2021/10/11 02:30:33;;;;;;;43.67;22.98;;;3.00;94.30;;;;;;5054842;28;20086;-71
2021/10/11 02:33:01;;;;;;;42.92;22.40;;;3.00;94.30;;;;;;5053605;28;20333;-71
2021/10/11 02:35:27;;;;;;;42.80;22.08;;;2.90;94.30;;;;;;5051043;28;20032;-71
2021/10/11 02:37:52;;;;;;;41.70;20.77;;;2.90;94.50;;;;;;5055008;28;20369;-70
2021/10/11 02:40:18;;;;;;;42.58;23.48;;;2.90;94.50;;;;;;5054012;28;20036;-71
2021/10/11 02:42:44;;;;;;;38.00;21.10;;;2.90;94.30;;;;;;5054715;28;20096;-70
2021/10/11 02:45:09;;;;;;;41.83;22.17;;;2.90;94.30;;;;;;5052318;28;20025;-71
2021/10/11 02:47:35;;;;;;;41.20;22.02;;;2.80;94.30;;;;;;5055543;28;20368;-72
2021/10/11 02:50:05;;;;;;;42.95;22.52;;;2.80;94.20;;;;;;5054590;28;20366;-70
2021/10/11 02:52:33;;;;;;;41.22;22.67;;;2.80;94.10;;;;;;5054284;28;20071;-71
2021/10/11 02:54:59;;;;;;;44.38;22.48;;;2.80;94.30;;;;;;5051970;28;20040;-71
2021/10/11 02:57:25;;;;;;;43.75;21.63;;;2.70;94.20;;;;;;5054241;28;20013;-71
2021/10/11 02:59:53;;;;;;;43.38;22.50;;;2.70;93.90;;;;;;5054318;28;20082;-71
2021/10/11 03:02:19;;;;;;;38.15;22.75;;;2.80;93.50;;;;;;5054163;28;20056;-71
2021/10/11 03:04:45;;;;;;;44.50;23.48;;;2.80;93.70;;;;;;5054924;28;20055;-69
2021/10/11 03:07:11;;;;;;;46.03;23.13;;;2.80;93.80;;;;;;5052074;28;20060;-69
2021/10/11 03:09:39;;;;;;;43.67;21.90;;;2.80;93.80;;;;;;5051069;28;20028;-70
2021/10/11 03:12:10;;;;;;;45.30;23.45;;;2.80;93.80;;;;;;5054753;28;20423;-70
2021/10/11 03:14:36;;;;;;;38.90;21.52;;;2.80;93.90;;;;;;5067359;28;20108;-69
2021/10/11 03:17:02;;;;;;;44.78;22.83;;;2.70;93.90;;;;;;5053414;28;20150;-71
2021/10/11 03:19:28;;;;;;;44.35;22.60;;;2.70;93.90;;;;;;5054446;28;20303;-72
2021/10/11 03:21:53;;;;;;;45.58;22.55;;;2.70;93.70;;;;;;5053477;28;20051;-71
2021/10/11 03:24:19;;;;;;;39.05;20.85;;;2.70;93.80;;;;;;5052582;28;20114;-71
2021/10/11 03:26:45;;;;;;;42.60;21.92;;;2.70;93.70;;;;;;5054362;28;20360;-71
2021/10/11 03:29:10;;;;;;;43.80;22.90;;;2.60;94.20;;;;;;5051735;28;20033;-70
2021/10/11 03:31:36;;;;;;;38.58;20.52;;;2.60;93.70;;;;;;5054735;28;20029;-70
2021/10/11 03:34:04;;;;;;;43.40;21.58;;;2.60;93.80;;;;;;5053536;28;20021;-71
2021/10/11 03:36:29;;;;;;;43.88;22.55;;;2.60;93.60;;;;;;5054519;28;20017;-71
2021/10/11 03:38:55;;;;;;;48.28;23.85;;;2.60;93.50;;;;;;5053158;28;20055;-70
2021/10/11 03:41:21;;;;;;;53.13;24.13;;;2.60;93.60;;;;;;5053017;28;20098;-71
2021/10/11 03:43:46;;;;;;;44.97;22.92;;;2.60;93.30;;;;;;5045607;28;20033;-71
2021/10/11 03:46:12;;;;;;;46.63;24.05;;;2.60;93.30;;;;;;5053521;28;20418;-71
2021/10/11 03:48:37;;;;;;;48.63;24.15;;;2.60;93.20;;;;;;5053836;28;20043;-71
2021/10/11 03:51:03;;;;;;;50.40;24.23;;;2.60;92.90;;;;;;5043716;28;20028;-71
2021/10/11 03:53:29;;;;;;;43.10;22.77;;;2.70;92.70;;;;;;5052311;28;20045;-70
2021/10/11 03:55:54;;;;;;;49.45;23.48;;;2.70;93.00;;;;;;5053652;28;20029;-70
2021/10/11 03:58:20;;;;;;;48.00;24.85;;;2.70;93.60;;;;;;5052865;28;20025;-71
2021/10/11 04:00:51;;;;;;;49.03;23.92;;;2.60;93.60;;;;;;5052292;28;20017;-71
2021/10/11 04:03:17;;;;;;;48.88;25.30;;;2.60;93.50;;;;;;5053927;28;20029;-71
2021/10/11 04:05:43;;;;;;;50.45;25.40;;;2.60;93.20;;;;;;5053624;28;20039;-71
2021/10/11 04:08:13;;;;;;;45.42;24.60;;;2.70;92.40;;;;;;5054487;28;20044;-71
2021/10/11 04:10:52;;;;;;;44.38;23.70;;;2.80;93.20;;;;;;5051582;28;20036;-71
2021/10/11 04:13:21;;;;;;;58.95;28.02;;;2.80;93.20;;;;;;5056238;28;20029;-70
2021/10/11 04:15:48;;;;;;;50.38;25.85;;;2.90;92.70;;;;;;5056565;28;20078;-71
2021/10/11 04:18:15;;;;;;;45.35;23.73;;;2.90;93.10;;;;;;5050532;28;20295;-70
2021/10/11 04:20:41;;;;;;;48.42;25.02;;;2.90;93.80;;;;;;5056850;28;20425;-71
2021/10/11 04:23:06;;;;;;;53.28;25.88;;;2.80;94.00;;;;;;5057101;28;20028;-71
2021/10/11 04:25:32;;;;;;;46.67;25.08;;;2.80;93.70;;;;;;5056300;28;20413;-71
2021/10/11 04:27:58;;;;;;;45.25;24.25;;;2.70;93.90;;;;;;5057712;28;20476;-68
2021/10/11 04:30:23;;;;;;;50.33;24.52;;;2.70;93.90;;;;;;5053366;28;20043;-71
2021/10/11 04:32:49;;;;;;;47.05;24.67;;;2.70;93.60;;;;;;5057649;28;20025;-70
2021/10/11 04:35:15;;;;;;;51.95;24.65;;;2.80;93.20;;;;;;5057141;28;20070;-71
2021/10/11 04:37:43;;;;;;;48.33;23.63;;;2.80;94.20;;;;;;5058374;28;20025;-71
2021/10/11 04:40:09;;;;;;;51.83;25.27;;;2.60;94.10;;;;;;5049133;28;20029;-70
2021/10/11 04:42:35;;;;;;;51.00;25.42;;;2.60;93.80;;;;;;5056345;28;20041;-71
2021/10/11 04:45:04;;;;;;;41.90;23.80;;;2.60;93.80;;;;;;5057143;28;20116;-71
2021/10/11 04:47:30;;;;;;;52.75;26.90;;;2.60;93.60;;;;;;5056491;28;20033;-71
2021/10/11 04:49:55;;;;;;;51.25;25.10;;;2.60;93.40;;;;;;5055772;28;20299;-71
2021/10/11 04:52:21;;;;;;;45.15;23.90;;;2.70;93.30;;;;;;5056674;28;20049;-71
2021/10/11 04:54:49;;;;;;;42.40;22.42;;;2.70;93.60;;;;;;5053518;28;20052;-71
2021/10/11 04:57:17;;;;;;;39.80;21.80;;;2.80;93.00;;;;;;5054764;28;20410;-70
2021/10/11 04:59:46;;;;;;;39.75;20.50;;;2.90;93.30;;;;;;5054392;28;20033;-71
2021/10/11 05:02:12;;;;;;;44.03;20.90;;;2.90;93.70;;;;;;5054612;28;20409;-71
2021/10/11 05:04:42;;;;;;;41.05;22.13;;;3.00;93.90;;;;;;5056739;28;20043;-71
2021/10/11 05:07:07;;;;;;;40.22;21.65;;;2.90;95.10;;;;;;5048957;28;20742;-71
2021/10/11 05:09:38;;;;;;;33.53;18.90;;;2.70;95.80;;;;;;5052047;28;20036;-71
2021/10/11 05:12:04;;;;;;;35.90;18.20;;;2.50;95.70;;;;;;5056838;28;20036;-71
2021/10/11 05:14:30;;;;;;;39.08;19.90;;;2.50;94.10;;;;;;5056057;28;20029;-71
2021/10/11 05:16:56;;;;;;;37.53;19.83;;;2.60;94.90;;;;;;5056834;28;20092;-71
2021/10/11 05:19:25;;;;;;;35.55;18.38;;;2.50;95.20;;;;;;5057454;28;20359;-72
2021/10/11 05:21:52;;;;;;;35.30;18.38;;;2.40;95.30;;;;;;5057163;28;20021;-71
2021/10/11 05:24:17;;;;;;;36.40;17.38;;;2.40;95.10;;;;;;5056200;28;20025;-72
2021/10/11 05:26:44;;;;;;;38.15;18.73;;;2.50;93.70;;;;;;5057148;28;20170;-70
2021/10/11 05:29:09;;;;;;;37.33;18.65;;;2.60;94.60;;;;;;5052353;28;20040;-72
2021/10/11 05:31:37;;;;;;;37.58;18.98;;;2.70;94.70;;;;;;5044909;28;20029;-72
2021/10/11 05:34:03;;;;;;;31.90;18.17;;;2.70;94.30;;;;;;5055933;28;20491;-70
2021/10/11 05:36:32;;;;;;;45.40;24.42;;;2.70;95.30;;;;;;5048281;28;20052;-72
2021/10/11 05:38:58;;;;;;;52.08;27.83;;;2.70;95.70;;;;;;5044077;28;20422;-72
2021/10/11 05:41:26;;;;;;;50.58;27.98;;;2.60;95.60;;;;;;5044048;28;20029;-71
2021/10/11 05:43:53;;;;;;;61.30;29.73;;;2.40;96.40;;;;;;5055930;28;20487;-72
2021/10/11 05:46:19;;;;;;;65.80;35.22;;;2.30;96.20;;;;;;5055927;28;20047;-70
2021/10/11 05:48:47;;;;;;;48.35;26.25;;;2.10;96.70;;;;;;5043149;28;20029;-72
2021/10/11 05:51:13;;;;;;;36.80;21.60;;;1.90;95.90;;;;;;5039610;28;20025;-71
2021/10/11 05:53:41;;;;;;;34.25;19.55;;;1.90;95.80;;;;;;5055206;28;20040;-72
2021/10/11 05:56:09;;;;;;;44.58;23.15;;;1.90;95.10;;;;;;5053800;28;20079;-72
2021/10/11 05:58:35;;;;;;;41.15;21.08;;;1.90;95.30;;;;;;5056250;28;20109;-73
2021/10/11 06:01:04;;;;;;;29.55;17.05;;;1.80;95.70;;;;;;5056851;28;20433;-70
2021/10/11 06:03:29;;;;;;;41.50;20.92;;;1.80;94.70;;;;;;5073040;28;20029;-70
2021/10/11 06:05:55;;;;;;;48.13;28.13;;;1.90;94.40;;;;;;5056476;28;20033;-69
2021/10/11 06:08:21;;;;;;;52.45;28.90;;;1.90;95.00;;;;;;5049839;28;20025;-70
2021/10/11 06:10:54;;;;;;;51.78;29.45;;;1.90;94.90;;;;;;5035899;28;20486;-72
2021/10/11 06:13:21;;;;;;;42.70;23.25;;;1.90;95.10;;;;;;5052551;28;20040;-71
2021/10/11 06:15:47;;;;;;;49.38;25.95;;;1.70;95.60;;;;;;5040095;28;20321;-71
2021/10/11 06:18:12;;;;;;;42.75;24.10;;;1.60;96.00;;;;;;5051020;28;20021;-71
2021/10/11 06:20:38;;;;;;;50.63;26.15;;;1.50;95.00;;;;;;5039158;28;20032;-71
2021/10/11 06:23:04;;;;;;;52.00;26.13;;;1.60;94.90;;;;;;5037566;28;20061;-71
2021/10/11 06:25:32;;;;;;;51.20;26.60;;;1.70;94.40;;;;;;5054868;28;20027;-69
2021/10/11 06:27:58;;;;;;;47.90;25.77;;;1.80;94.30;;;;;;5043740;28;20430;-72
2021/10/11 06:30:24;;;;;;;42.75;22.00;;;1.90;94.10;;;;;;5055306;28;20039;-71
2021/10/11 06:32:52;;;;;;;42.72;22.33;;;2.10;93.40;;;;;;5056406;28;20055;-71
2021/10/11 06:35:18;;;;;;;42.25;23.30;;;2.20;93.80;;;;;;5055599;28;20033;-71
2021/10/11 06:37:43;;;;;;;43.33;25.05;;;2.40;93.50;;;;;;5054882;28;20475;-70
2021/10/11 06:40:09;;;;;;;38.22;19.48;;;2.60;93.50;;;;;;5055153;28;20096;-71
2021/10/11 06:42:35;;;;;;;30.10;17.73;;;2.60;93.90;;;;;;5054938;28;20377;-72
2021/10/11 06:45:00;;;;;;;32.28;17.40;;;2.80;93.70;;;;;;5040805;28;20322;-71
2021/10/11 06:47:26;;;;;;;31.85;18.90;;;3.00;93.90;;;;;;5043988;28;20035;-71
2021/10/11 06:49:52;;;;;;;30.67;16.08;;;3.20;94.20;;;;;;5055500;28;20428;-72
2021/10/11 06:52:18;;;;;;;26.35;15.50;;;3.40;94.60;;;;;;5056141;28;20400;-71
2021/10/11 06:54:47;;;;;;;26.58;16.17;;;3.60;95.10;;;;;;5053208;28;20325;-71
2021/10/11 06:57:13;;;;;;;26.50;14.50;;;3.70;95.80;;;;;;5051887;28;20025;-72
2021/10/11 06:59:38;;;;;;;22.08;13.40;;;3.80;96.20;;;;;;5056174;28;20025;-71
2021/10/11 07:02:04;;;;;;;21.90;13.38;;;3.90;96.70;;;;;;5056253;28;20029;-71
2021/10/11 07:04:33;;;;;;;25.23;12.40;;;4.00;97.30;;;;;;5056076;28;20029;-71
2021/10/11 07:06:59;;;;;;;23.33;12.32;;;4.10;97.90;;;;;;5053684;28;20417;-72
2021/10/11 07:09:28;;;;;;;26.10;12.50;;;4.20;98.00;;;;;;5037620;28;20056;-71
2021/10/11 07:11:53;;;;;;;20.00;11.38;;;4.40;98.00;;;;;;5037115;28;20029;-71
2021/10/11 07:14:19;;;;;;;18.98;11.30;;;4.60;98.00;;;;;;5050095;28;20317;-71
2021/10/11 07:16:46;;;;;;;24.75;11.27;;;4.80;98.00;;;;;;5055012;28;20025;-72
2021/10/11 07:19:15;;;;;;;19.48;11.00;;;5.00;98.00;;;;;;5035886;28;20354;-71
2021/10/11 07:21:41;;;;;;;17.67;10.65;;;5.20;98.00;;;;;;5036056;28;20044;-70
2021/10/11 07:24:08;;;;;;;21.73;12.48;;;5.40;98.00;;;;;;5033482;28;20418;-73
2021/10/11 07:26:34;;;;;;;24.85;12.10;;;5.60;98.00;;;;;;5041745;28;20034;-70
2021/10/11 07:28:59;;;;;;;21.10;11.80;;;5.60;98.00;;;;;;5046141;28;20326;-71
2021/10/11 07:31:25;;;;;;;18.65;10.80;;;5.70;98.00;;;;;;5042891;28;20029;-70
2021/10/11 07:33:51;;;;;;;18.75;11.10;;;5.80;98.00;;;;;;5053959;28;20037;-69
2021/10/11 07:36:16;;;;;;;18.45;10.57;;;6.00;98.00;;;;;;5053563;28;20032;-70
2021/10/11 07:38:42;;;;;;;17.92;9.57;;;6.20;98.00;;;;;;5054480;28;20096;-71
2021/10/11 07:41:08;;;;;;;16.35;10.13;;;6.50;98.00;;;;;;5055264;28;20032;-71
2021/10/11 07:43:36;;;;;;;18.13;9.68;;;6.70;98.00;;;;;;5047817;28;20072;-69
2021/10/11 07:46:03;;;;;;;16.30;9.63;;;6.90;98.00;;;;;;5050114;28;20100;-72
2021/10/11 07:48:30;;;;;;;15.05;8.95;;;7.10;98.00;;;;;;5054508;28;20021;-72
2021/10/11 07:50:59;;;;;;;14.07;8.23;;;7.40;98.00;;;;;;5055485;28;20021;-71
2021/10/11 07:53:25;;;;;;;16.52;9.30;;;7.80;98.00;;;;;;5052381;28;20099;-71
2021/10/11 07:55:50;;;;;;;14.75;8.93;;;8.10;98.00;;;;;;5053402;28;20041;-72
2021/10/11 07:58:16;;;;;;;14.77;8.18;;;8.60;98.00;;;;;;5049020;28;20033;-72
2021/10/11 08:00:42;;;;;;;17.23;8.07;;;9.30;98.00;;;;;;5047729;28;20452;-70
2021/10/11 08:03:10;;;;;;;12.32;7.45;;;10.70;98.00;;;;;;5049246;28;20021;-70
2021/10/11 08:05:38;;;;;;;12.15;6.82;;;11.80;96.50;;;;;;5054200;28;20098;-71
2021/10/11 08:08:05;;;;;;;14.48;6.97;;;12.50;91.00;;;;;;5055389;28;20440;-71
2021/10/11 08:10:33;;;;;;;14.80;8.00;;;13.50;90.40;;;;;;5052351;28;20432;-70
2021/10/11 08:12:59;;;;;;;17.13;8.55;;;14.10;84.50;;;;;;5054807;28;20317;-71
2021/10/11 08:15:25;;;;;;;15.98;10.75;;;15.00;83.60;;;;;;5054990;28;20140;-72
2021/10/11 08:17:51;;;;;;;19.15;11.20;;;15.60;80.80;;;;;;5035308;28;20030;-72
2021/10/11 08:20:18;;;;;;;16.30;10.45;;;15.60;80.50;;;;;;5035327;28;20037;-71
2021/10/11 08:22:44;;;;;;;18.60;10.55;;;15.50;78.50;;;;;;5055117;28;20036;-72
2021/10/11 08:25:10;;;;;;;14.38;9.40;;;15.80;77.30;;;;;;5053491;28;20032;-70
2021/10/11 08:27:36;;;;;;;17.27;9.82;;;15.50;75.80;;;;;;5037099;28;20052;-72
2021/10/11 08:30:03;;;;;;;18.33;8.57;;;15.20;77.30;;;;;;5035238;28;20323;-70
2021/10/11 08:32:30;;;;;;;16.20;9.45;;;15.20;75.50;;;;;;5052844;28;20033;-71
2021/10/11 08:34:56;;;;;;;15.65;8.30;;;14.80;73.40;;;;;;5054830;28;20032;-72
2021/10/11 08:37:22;;;;;;;18.00;9.15;;;14.40;74.70;;;;;;5053414;28;20033;-71
2021/10/11 08:39:49;;;;;;;14.88;9.10;;;13.90;74.80;;;;;;5053716;28;20143;-70
2021/10/11 08:42:16;;;;;;;16.50;8.93;;;14.10;75.70;;;;;;5041445;28;20061;-70
2021/10/11 08:44:45;;;;;;;19.58;9.45;;;14.50;74.70;;;;;;5054705;28;20029;-70
2021/10/11 08:47:12;;;;;;;15.73;8.73;;;14.70;73.80;;;;;;5053630;28;20429;-71
2021/10/11 08:49:43;;;;;;;16.70;9.90;;;14.30;73.40;;;;;;5054772;28;20062;-71
2021/10/11 08:52:12;;;;;;;14.55;8.70;;;14.20;74.50;;;;;;5037445;28;20441;-71
2021/10/11 08:54:42;;;;;;;14.00;8.35;;;14.50;74.40;;;;;;4994304;28;20328;-70
2021/10/11 08:57:36;;;;;;;16.40;8.75;;;14.70;73.40;;;;;;5013233;28;20092;-70
2021/10/11 09:00:16;;;;;;;23.55;9.65;;;15.20;70.80;;;;;;5018266;28;20028;-70
2021/10/11 09:03:01;;;;;;;14.10;8.52;;;15.00;70.70;;;;;;4998954;28;20033;-70
2021/10/11 09:05:33;;;;;;;;;;;14.70;69.40;;;;;;5017205;28;20025;-72
2021/10/11 09:08:14;;;;;;;17.35;8.70;;;14.80;70.20;;;;;;5018235;28;20043;-72
2021/10/11 09:10:54;;;;;;;15.65;8.23;;;14.90;71.00;;;;;;5003418;28;20034;-72
2021/10/11 09:13:29;;;;;;;21.10;9.73;;;15.70;70.10;;;;;;5017967;28;20041;-72
2021/10/11 09:16:05;;;;;;;14.68;8.30;;;16.10;68.00;;;;;;5010473;28;20037;-72
2021/10/11 09:18:31;;;;;;;14.23;7.70;;;16.10;67.20;;;;;;4998814;28;20022;-72
2021/10/11 09:20:57;;;;;;;14.13;7.90;;;16.40;67.00;;;;;;5007685;28;20049;-72
2021/10/11 09:23:24;;;;;;;12.65;7.57;;;16.40;67.50;;;;;;5018162;28;20029;-72
2021/10/11 09:25:50;;;;;;;13.85;7.90;;;16.80;65.80;;;;;;5010106;28;20026;-72
2021/10/11 09:28:19;;;;;;;13.30;8.20;;;17.20;65.40;;;;;;4998850;28;20022;-72
2021/10/11 09:30:48;;;;;;;12.98;8.75;;;17.30;65.90;;;;;;5005641;28;20022;-71
2021/10/11 09:33:20;;;;;;;15.35;9.25;;;16.90;65.60;;;;;;5018335;28;20355;-71
2021/10/11 09:35:47;;;;;;;17.27;10.02;;;16.30;67.70;;;;;;5011812;28;20108;-71
2021/10/11 09:38:32;;;;;;;15.52;9.25;;;15.90;68.60;;;;;;4998343;28;20018;-71
2021/10/11 09:40:58;;;;;;;;;;;15.10;69.80;;;;;;5000022;28;20390;-72
2021/10/11 09:43:26;;;;;;;16.83;9.98;;;14.10;72.10;;;;;;5006522;28;20219;-71
2021/10/11 09:45:55;;;;;;;14.65;8.68;;;13.70;74.80;;;;;;5004509;28;20365;-71
2021/10/11 09:48:22;;;;;;;18.40;9.60;;;13.60;75.60;;;;;;5016907;28;20053;-70
2021/10/11 09:50:48;;;;;;;17.77;9.57;;;13.50;74.10;;;;;;5010195;28;20034;-72
2021/10/11 09:53:16;;;;;;;13.63;9.73;;;13.20;75.60;;;;;;5014525;28;20052;-72
2021/10/11 09:55:44;;;;;;;19.70;9.38;;;13.20;76.80;;;;;;5039454;28;20022;-72
2021/10/11 09:58:14;;;;;;;16.02;9.60;;;13.80;74.00;;;;;;5039653;28;20029;-72
2021/10/11 10:00:42;;;;;;;15.55;9.48;;;14.20;73.30;;;;;;5037553;28;20029;-71
2021/10/11 10:03:14;;;;;;;19.10;9.30;;;14.60;72.50;;;;;;5037652;28;20349;-71
2021/10/11 10:05:45;;;;;;;13.68;8.57;;;14.90;72.50;;;;;;5041230;28;20025;-72
2021/10/11 10:08:21;;;;;;;17.98;9.77;;;15.50;72.00;;;;;;5056297;28;20029;-71
2021/10/11 10:10:52;;;;;;;16.77;9.45;;;15.70;70.90;;;;;;5055161;28;20035;-71
2021/10/11 10:13:20;;;;;;;16.15;9.20;;;15.70;70.60;;;;;;5056791;28;20036;-72
2021/10/11 10:15:48;;;;;;;21.70;9.52;;;15.60;69.70;;;;;;5056816;28;20318;-71
2021/10/11 10:18:17;;;;;;;16.80;8.50;;;15.90;70.20;;;;;;5046055;28;20410;-70
2021/10/11 10:20:55;;;;;;;15.02;8.95;;;16.00;69.80;;;;;;5037040;28;20029;-71
2021/10/11 10:23:22;;;;;;;16.38;8.60;;;16.20;68.60;;;;;;5051969;28;20028;-70
2021/10/11 10:25:48;;;;;;;12.30;8.30;;;16.80;67.30;;;;;;5055897;28;20029;-72
2021/10/11 10:28:14;;;;;;;15.68;8.88;;;17.30;67.40;;;;;;5051599;28;20029;-71
2021/10/11 10:30:40;;;;;;;18.80;8.85;;;17.20;66.30;;;;;;5055189;28;20059;-72
2021/10/11 10:33:08;;;;;;;15.43;8.20;;;17.40;67.00;;;;;;5045170;28;20021;-72
2021/10/11 10:35:45;;;;;;;15.05;8.93;;;17.20;64.80;;;;;;5035821;28;20672;-71
2021/10/11 10:38:19;;;;;;;16.98;8.23;;;17.20;66.90;;;;;;5037087;28;20017;-71
2021/10/11 10:40:45;;;;;;;17.65;8.80;;;17.00;67.50;;;;;;5054265;28;20013;-70
2021/10/11 10:43:15;;;;;;;16.40;7.50;;;16.50;68.50;;;;;;5047315;28;20029;-71
2021/10/11 10:45:41;;;;;;;17.10;10.13;;;17.00;68.20;;;;;;5040308;28;20033;-71
2021/10/11 10:48:23;;;;;;;17.55;8.15;;;17.50;66.70;;;;;;5044933;28;20048;-72
2021/10/11 10:50:56;;;;;;;14.23;8.27;;;18.10;66.00;;;;;;5036628;28;20032;-71
2021/10/11 10:53:23;;;;;;;16.33;9.90;;;17.70;64.80;;;;;;5044569;28;20045;-72
2021/10/11 10:55:49;;;;;;;16.27;9.13;;;16.90;67.00;;;;;;5055001;28;20135;-72
2021/10/11 10:58:16;;;;;;;15.73;8.80;;;16.10;67.50;;;;;;5056140;28;20021;-71
2021/10/11 11:00:45;;;;;;;14.30;9.25;;;15.60;70.00;;;;;;5054894;28;20470;-71
2021/10/11 11:03:13;;;;;;;20.50;9.40;;;15.50;70.70;;;;;;5036288;28;20032;-71
2021/10/11 11:05:42;;;;;;;16.05;10.43;;;16.00;70.70;;;;;;5036132;28;20029;-71
2021/10/11 11:08:09;;;;;;;19.38;9.68;;;16.00;69.80;;;;;;5037668;28;20026;-72
2021/10/11 11:10:37;;;;;;;18.05;8.98;;;16.10;69.40;;;;;;5043197;28;20048;-69
2021/10/11 11:13:06;;;;;;;17.60;8.70;;;15.90;69.40;;;;;;5055452;28;20036;-71
2021/10/11 11:15:35;;;;;;;14.35;8.05;;;15.90;69.80;;;;;;5039523;28;20426;-71
2021/10/11 11:18:24;;;;;;;15.32;9.50;;;16.80;68.50;;;;;;5036158;28;20083;-71
2021/10/11 11:20:52;;;;;;;15.40;8.95;;;17.60;67.20;;;;;;5053354;28;20460;-72
2021/10/11 11:23:24;;;;;;;13.77;8.85;;;17.80;66.80;;;;;;5054580;28;20036;-71
2021/10/11 11:25:52;;;;;;;15.57;8.35;;;17.40;65.80;;;;;;5054420;28;20039;-72
2021/10/11 11:28:23;;;;;;;14.98;8.77;;;17.10;68.20;;;;;;5055769;28;20025;-71
2021/10/11 11:30:51;;;;;;;16.40;8.90;;;17.60;67.50;;;;;;5055312;28;20053;-72
2021/10/11 11:33:22;;;;;;;17.75;8.90;;;17.90;66.50;;;;;;5055698;28;20057;-71
2021/10/11 11:35:53;;;;;;;16.00;8.18;;;17.90;66.20;;;;;;5054324;28;20043;-71
2021/10/11 11:38:22;;;;;;;13.43;7.88;;;17.80;64.50;;;;;;5054226;28;20071;-71
2021/10/11 11:41:07;;;;;;;13.77;7.40;;;17.80;64.10;;;;;;5054335;28;20071;-70
2021/10/11 11:43:35;;;;;;;14.15;8.75;;;18.50;65.90;;;;;;5054502;28;20029;-72
2021/10/11 11:46:06;;;;;;;15.10;8.18;;;18.20;65.30;;;;;;5055178;28;20028;-72
2021/10/11 11:48:38;;;;;;;15.48;8.70;;;17.70;66.70;;;;;;5054882;28;20029;-72
2021/10/11 11:51:16;;;;;;;16.05;7.78;;;17.10;67.30;;;;;;5055085;28;20036;-70
2021/10/11 11:53:43;;;;;;;16.65;8.07;;;17.00;66.50;;;;;;5054363;28;20049;-71
2021/10/11 11:56:12;;;;;;;17.48;8.45;;;16.70;66.30;;;;;;5055162;28;20417;-70
2021/10/11 11:58:41;;;;;;;14.38;8.32;;;16.10;67.60;;;;;;5055149;28;20405;-70
2021/10/11 12:01:13;;;;;;;14.85;8.23;;;16.40;68.70;;;;;;5055416;28;20032;-72
2021/10/11 12:03:45;;;;;;;13.15;7.13;;;17.10;67.80;;;;;;5055016;28;20083;-73
2021/10/11 12:06:11;;;;;;;13.00;7.53;;;17.00;63.40;;;;;;5055309;28;20018;-71
2021/10/11 12:08:44;;;;;;;16.77;8.57;;;16.70;64.30;;;;;;5054575;28;20025;-72
2021/10/11 12:11:11;;;;;;;13.65;7.57;;;16.70;64.30;;;;;;5055293;28;20029;-72
2021/10/11 12:13:43;;;;;;;15.30;8.13;;;16.60;64.60;;;;;;5054932;28;20025;-72
2021/10/11 12:16:11;;;;;;;11.57;7.03;;;16.40;64.00;;;;;;5055277;28;20021;-72
2021/10/11 12:18:40;;;;;;;11.80;6.72;;;16.10;64.50;;;;;;5055005;28;20025;-71
2021/10/11 12:21:23;;;;;;;11.23;6.90;;;16.10;63.40;;;;;;5035167;28;20327;-72
2021/10/11 12:23:50;;;;;;;12.05;6.90;;;16.50;64.80;;;;;;5035088;28;20025;-72
2021/10/11 12:26:16;;;;;;;14.93;7.70;;;16.80;63.20;;;;;;5050745;28;20413;-72
2021/10/11 12:29:05;;;;;;;13.93;7.38;;;16.20;63.60;;;;;;5054858;28;20036;-72
2021/10/11 12:31:33;;;;;;;13.95;7.80;;;15.90;65.60;;;;;;5054434;28;20021;-72
2021/10/11 12:34:06;;;;;;;15.90;7.40;;;16.00;66.10;;;;;;5056452;28;20021;-72
2021/10/11 12:36:33;;;;;;;13.47;7.73;;;16.20;65.60;;;;;;5058642;28;20085;-71
2021/10/11 12:39:10;;;;;;;24.48;9.70;;;16.30;64.20;;;;;;5057277;28;20055;-72
2021/10/11 12:41:35;;;;;;;14.45;7.68;;;16.40;65.30;;;;;;5058601;28;20029;-71